Terminal Aerodrome Forecast
Issued by NWS

Home | Current Version | Previous Version | Text Only | Print | Product List | Glossary On
Versions: 1 2 3 4 5 6 7 8 9 10 11 12 13 14 15 16 17
000
FTUS42 KILM 222300
TAFCRE
TAF
KCRE 222339Z 2300/2324 04003KT 6SM -RA BKN040 OVC100
     FM230700 04007KT 6SM -RA BKN018 OVC100
     FM231400 05010KT 4SM -RA BR BKN007 BKN040 OVC080
     FM231900 04010KT P6SM VCSH BKN010 OVC080=

USA.gov is the U.S. government's official web portal to all federal, state and local government web resources and services.